Time;durP1;ratioP1;P1;durP2;ratioP2;P2;SDS_P1;SDS_P2;PMS_P1;PMS_P2;Temp;Humidity;BMP_temperature;BMP_pressure;BME280_temperature;BME280_humidity;BME280_pressure;Samples;Min_cycle;Max_cycle;Signal;HPM_P1;HPM_P2
2023/01/15 00:01:22;;;;;;;0.40;0.40;;;10.10;99.90;;;;;;5009136;28;20649;-83
2023/01/15 00:03:48;;;;;;;0.30;0.30;;;10.00;99.90;;;;;;5025709;28;20194;-82
2023/01/15 00:06:16;;;;;;;0.20;0.20;;;10.00;99.90;;;;;;5009090;28;20215;-82
2023/01/15 00:08:42;;;;;;;0.37;0.30;;;10.00;99.90;;;;;;5010531;28;20183;-79
2023/01/15 00:11:07;;;;;;;0.30;0.30;;;10.00;99.90;;;;;;5007421;28;20663;-79
2023/01/15 00:13:33;;;;;;;0.77;0.30;;;9.90;99.90;;;;;;5006559;28;20199;-79
2023/01/15 00:16:12;;;;;;;0.40;0.30;;;10.00;99.90;;;;;;5005402;28;20307;-80
2023/01/15 00:18:38;;;;;;;0.40;0.30;;;10.00;99.90;;;;;;5005195;28;20616;-80
2023/01/15 00:21:06;;;;;;;0.30;0.30;;;10.00;99.90;;;;;;5006904;28;20188;-79
2023/01/15 00:29:03;;;;;;;0.73;0.30;;;9.80;99.90;;;;;;5006972;28;20191;-79
2023/01/15 00:31:30;;;;;;;0.40;0.40;;;9.80;99.90;;;;;;5006140;28;20188;-79
2023/01/15 00:33:56;;;;;;;0.67;0.40;;;9.70;99.90;;;;;;5004635;28;20195;-80
2023/01/15 00:36:22;;;;;;;0.60;0.30;;;9.70;99.90;;;;;;5004844;28;20739;-79
2023/01/15 00:38:48;;;;;;;0.70;0.40;;;9.60;99.90;;;;;;5005070;28;20673;-79
2023/01/15 00:41:13;;;;;;;0.50;0.40;;;9.70;99.90;;;;;;5005302;28;20191;-79
2023/01/15 00:43:39;;;;;;;0.50;0.50;;;9.60;99.90;;;;;;5006662;28;20560;-79
2023/01/15 00:46:07;;;;;;;0.30;0.30;;;9.50;1.00;;;;;;5005977;28;20914;-79
2023/01/15 00:48:33;;;;;;;0.60;0.60;;;9.50;1.00;;;;;;5004766;28;20681;-79
2023/01/15 00:50:58;;;;;;;0.40;0.40;;;9.50;1.00;;;;;;5006487;28;20195;-80
2023/01/15 00:53:24;;;;;;;0.50;0.50;;;9.40;1.00;;;;;;5006271;28;20183;-79
2023/01/15 00:55:50;;;;;;;0.50;0.50;;;9.30;1.00;;;;;;5005155;28;20234;-79
2023/01/15 00:58:15;;;;;;;1.43;0.60;;;9.30;1.00;;;;;;5005231;28;20183;-79
2023/01/15 01:00:41;;;;;;;0.63;0.50;;;9.30;1.00;;;;;;5004942;28;20560;-81
2023/01/15 01:03:06;;;;;;;1.27;0.70;;;9.30;1.00;;;;;;5006826;28;20314;-79
2023/01/15 01:05:32;;;;;;;0.53;0.53;;;9.30;1.00;;;;;;5005726;28;20623;-80
2023/01/15 01:07:58;;;;;;;1.03;0.60;;;9.30;1.00;;;;;;5006526;28;20186;-80
2023/01/15 01:10:24;;;;;;;1.03;0.60;;;9.20;1.00;;;;;;5006706;28;20610;-80
2023/01/15 01:12:51;;;;;;;1.27;0.60;;;9.20;1.00;;;;;;5006283;28;20210;-81
2023/01/15 01:15:21;;;;;;;0.70;0.70;;;9.10;1.00;;;;;;5004942;28;20681;-79
2023/01/15 01:17:46;;;;;;;0.87;0.70;;;9.20;1.00;;;;;;5005362;28;20633;-79
2023/01/15 01:20:13;;;;;;;1.87;0.80;;;9.10;1.00;;;;;;5005517;28;20270;-79
2023/01/15 01:22:39;;;;;;;1.60;0.70;;;9.10;1.00;;;;;;5004724;28;20255;-81
2023/01/15 01:25:06;;;;;;;2.50;0.80;;;8.90;1.00;;;;;;5006095;28;20195;-80
2023/01/15 01:27:31;;;;;;;1.27;0.70;;;8.50;1.00;;;;;;5006372;28;20262;-79
2023/01/15 01:29:57;;;;;;;2.03;0.63;;;8.20;1.00;;;;;;5006397;28;20544;-79
2023/01/15 01:32:22;;;;;;;1.57;0.70;;;7.90;1.00;;;;;;5007400;28;20211;-80
2023/01/15 01:34:48;;;;;;;1.30;0.50;;;7.80;1.00;;;;;;5005836;28;20187;-79
2023/01/15 01:37:13;;;;;;;0.97;0.80;;;7.50;1.00;;;;;;5006571;28;20203;-79
2023/01/15 01:39:39;;;;;;;0.87;0.57;;;7.40;1.00;;;;;;5005560;28;20195;-79
2023/01/15 01:42:12;;;;;;;2.37;0.70;;;7.30;1.00;;;;;;5008090;28;20207;-79
2023/01/15 01:44:37;;;;;;;1.70;0.53;;;7.20;1.00;;;;;;5007456;28;20505;-79
2023/01/15 01:47:09;;;;;;;1.03;0.53;;;7.20;1.00;;;;;;5005654;28;20201;-79
2023/01/15 01:49:37;;;;;;;1.27;0.60;;;7.10;1.00;;;;;;5005857;28;20191;-79
2023/01/15 01:52:19;;;;;;;2.47;0.70;;;7.10;1.00;;;;;;5005286;28;20548;-80
2023/01/15 01:59:58;;;;;;;3.57;0.53;;;6.80;1.00;;;;;;5206102;22;20238;-78
2023/01/15 02:02:24;;;;;;;1.83;0.60;;;6.70;99.90;;;;;;5002751;28;20222;-79
2023/01/15 02:04:50;;;;;;;1.93;0.50;;;6.70;1.00;;;;;;5002269;28;20207;-79
2023/01/15 02:07:15;;;;;;;1.37;0.60;;;6.60;1.00;;;;;;5019411;23;20258;-80
2023/01/15 02:17:28;;;;;;;1.63;0.60;;;6.30;99.90;;;;;;4983353;28;20297;-82
2023/01/15 02:20:24;;;;;;;1.37;0.33;;;6.20;1.00;;;;;;4987373;28;20179;-82
2023/01/15 02:23:47;;;;;;;1.97;0.50;;;6.10;99.90;;;;;;4988674;28;20196;-82
2023/01/15 02:26:48;;;;;;;0.60;0.40;;;6.00;99.90;;;;;;4986441;28;20460;-81
2023/01/15 02:29:19;;;;;;;0.70;0.33;;;5.90;99.90;;;;;;4988469;28;20227;-80
2023/01/15 02:31:49;;;;;;;1.43;0.40;;;5.90;99.90;;;;;;4989084;28;20196;-81
2023/01/15 02:34:22;;;;;;;1.20;0.30;;;5.90;99.90;;;;;;4988356;28;20271;-81
2023/01/15 02:36:53;;;;;;;0.50;0.30;;;5.90;99.90;;;;;;4988452;28;20295;-81
2023/01/15 02:39:21;;;;;;;0.63;0.30;;;6.00;99.90;;;;;;4986582;28;20198;-80
2023/01/15 02:41:50;;;;;;;0.87;0.40;;;6.00;99.90;;;;;;4986304;28;20258;-80
2023/01/15 02:44:20;;;;;;;2.03;0.60;;;5.90;99.90;;;;;;4987736;28;20238;-80
2023/01/15 02:46:46;;;;;;;0.30;0.30;;;5.80;99.90;;;;;;4986541;28;20215;-81
2023/01/15 02:49:18;;;;;;;0.63;0.30;;;5.90;99.90;;;;;;4987982;28;20191;-82
2023/01/15 02:51:49;;;;;;;1.03;0.40;;;5.90;99.90;;;;;;4986403;28;20187;-82
2023/01/15 02:54:16;;;;;;;1.57;0.40;;;;;;;;;;4987548;28;20192;-81
2023/01/15 02:56:45;;;;;;;0.70;0.30;;;5.90;99.90;;;;;;4985655;28;20212;-81
2023/01/15 02:59:17;;;;;;;0.63;0.40;;;5.90;99.90;;;;;;4987477;28;20199;-80
2023/01/15 03:02:14;;;;;;;1.63;0.70;;;5.80;99.90;;;;;;4987218;28;20588;-80
2023/01/15 03:04:47;;;;;;;0.93;0.30;;;5.80;99.90;;;;;;4975769;28;20207;-79
2023/01/15 03:07:23;;;;;;;0.50;0.20;;;5.80;99.90;;;;;;4985124;28;20208;-80
2023/01/15 03:09:50;;;;;;;1.07;0.27;;;5.70;99.90;;;;;;4985737;28;20195;-80
2023/01/15 03:13:02;;;;;;;1.37;0.43;;;5.70;99.90;;;;;;4985118;28;20623;-80
2023/01/15 03:18:59;;;;;;;1.57;0.50;;;5.50;99.90;;;;;;4986824;28;20684;-80
2023/01/15 03:21:49;;;;;;;0.77;0.60;;;4.80;99.90;;;;;;4985212;28;20256;-80
2023/01/15 03:24:23;;;;;;;1.57;0.63;;;5.60;99.90;;;;;;5001669;28;20188;-81
2023/01/15 03:26:49;;;;;;;0.80;0.70;;;5.60;99.90;;;;;;4985024;28;20207;-80
2023/01/15 03:29:15;;;;;;;2.37;0.67;;;5.60;99.90;;;;;;4987049;28;20189;-79
2023/01/15 03:31:43;;;;;;;1.27;0.60;;;5.60;99.90;;;;;;4984799;28;20670;-79
2023/01/15 03:34:10;;;;;;;1.20;0.60;;;5.60;99.90;;;;;;4987374;28;20184;-81
2023/01/15 03:36:36;;;;;;;0.63;0.40;;;5.60;99.90;;;;;;4986716;28;20243;-80
2023/01/15 03:39:02;;;;;;;1.03;0.67;;;5.60;99.90;;;;;;4984882;28;20212;-80
2023/01/15 03:41:43;;;;;;;0.30;0.30;;;5.60;99.90;;;;;;4985262;28;20203;-79
2023/01/15 03:44:17;;;;;;;1.70;0.30;;;5.60;99.90;;;;;;4986828;28;20571;-81
2023/01/15 03:47:14;;;;;;;0.63;0.37;;;5.50;99.90;;;;;;4986936;28;20203;-81
2023/01/15 03:49:50;;;;;;;1.80;0.43;;;5.50;99.90;;;;;;4986966;28;20188;-79
2023/01/15 03:52:21;;;;;;;0.53;0.30;;;5.60;99.90;;;;;;4987046;28;20726;-79
2023/01/15 03:55:05;;;;;;;0.70;0.40;;;5.60;99.90;;;;;;4985495;28;20192;-82
2023/01/15 03:57:35;;;;;;;0.33;0.20;;;6.00;99.90;;;;;;4986728;28;20207;-80
2023/01/15 04:00:15;;;;;;;0.20;0.20;;;5.50;99.90;;;;;;4985234;28;20661;-80
2023/01/15 04:02:43;;;;;;;1.00;0.20;;;5.50;99.90;;;;;;4988045;28;20568;-81
2023/01/15 04:05:09;;;;;;;0.93;0.40;;;5.50;99.90;;;;;;4987168;28;20553;-81
2023/01/15 04:07:35;;;;;;;0.40;0.40;;;5.50;99.90;;;;;;4987594;28;20212;-81
2023/01/15 04:10:00;;;;;;;0.90;0.40;;;5.50;99.90;;;;;;4987748;28;20184;-81
2023/01/15 04:12:26;;;;;;;0.77;0.30;;;5.40;99.90;;;;;;4988401;28;20188;-81
2023/01/15 04:14:52;;;;;;;1.10;0.20;;;5.50;99.90;;;;;;4988109;28;20576;-82
2023/01/15 04:17:18;;;;;;;0.93;0.30;;;5.50;99.90;;;;;;4987693;28;20238;-81
2023/01/15 04:19:43;;;;;;;1.37;0.20;;;5.50;99.90;;;;;;4988782;28;20216;-81
2023/01/15 04:22:10;;;;;;;1.07;0.30;;;5.50;99.90;;;;;;4986530;28;20212;-81
2023/01/15 04:24:36;;;;;;;0.37;0.27;;;5.50;99.90;;;;;;4988455;28;20639;-82
2023/01/15 04:27:02;;;;;;;0.33;0.30;;;5.50;99.90;;;;;;4987651;28;20232;-82
2023/01/15 04:29:28;;;;;;;0.20;0.20;;;5.50;99.90;;;;;;5002712;28;20235;-80
2023/01/15 04:31:56;;;;;;;0.20;0.20;;;5.60;99.90;;;;;;4988275;28;20184;-81
2023/01/15 04:34:26;;;;;;;0.37;0.20;;;5.60;99.90;;;;;;4988481;28;20192;-81
2023/01/15 04:36:52;;;;;;;0.30;0.30;;;5.50;99.90;;;;;;4988515;28;20277;-81
2023/01/15 04:39:17;;;;;;;0.60;0.30;;;5.50;99.90;;;;;;4987828;28;20184;-82
2023/01/15 04:44:28;;;;;;;0.93;0.50;;;5.40;99.90;;;;;;4991048;28;20525;-82
2023/01/15 04:46:56;;;;;;;0.30;0.23;;;5.50;99.90;;;;;;4984871;28;20196;-80
2023/01/15 04:49:22;;;;;;;0.47;0.30;;;5.50;99.90;;;;;;4984298;28;20184;-80
2023/01/15 04:51:47;;;;;;;0.20;0.20;;;5.50;99.90;;;;;;4983561;28;20240;-81
2023/01/15 04:54:14;;;;;;;1.23;0.30;;;5.60;99.90;;;;;;4984647;28;20571;-80
2023/01/15 04:56:46;;;;;;;0.57;0.33;;;5.50;99.90;;;;;;4984044;28;20218;-80
2023/01/15 04:59:12;;;;;;;1.43;0.30;;;5.70;99.90;;;;;;4983021;28;20279;-79
2023/01/15 05:01:38;;;;;;;0.27;0.27;;;5.70;80.80;;;;;;4983038;28;20208;-81
2023/01/15 05:04:04;;;;;;;0.70;0.30;;;5.60;81.10;;;;;;4984008;28;20172;-80
2023/01/15 05:06:30;;;;;;;0.47;0.30;;;5.60;87.90;;;;;;4983893;28;20234;-81
2023/01/15 05:08:56;;;;;;;1.27;0.40;;;5.60;57.20;;;;;;4983008;28;20553;-79
2023/01/15 05:11:23;;;;;;;0.33;0.30;;;5.60;63.20;;;;;;4998004;28;20192;-79
2023/01/15 05:13:48;;;;;;;0.60;0.30;;;5.60;90.50;;;;;;4984471;28;20554;-80
2023/01/15 05:16:17;;;;;;;0.60;0.30;;;5.60;90.20;;;;;;4982285;28;20219;-81
2023/01/15 05:18:44;;;;;;;0.30;0.30;;;6.50;91.80;;;;;;4984283;28;20191;-82
2023/01/15 05:21:15;;;;;;;1.20;0.30;;;5.60;99.90;;;;;;4984621;28;20191;-80
2023/01/15 05:23:41;;;;;;;0.37;0.30;;;5.60;99.30;;;;;;4984491;28;20669;-80
2023/01/15 05:26:07;;;;;;;1.43;0.30;;;5.60;97.60;;;;;;4984361;28;20645;-80
2023/01/15 05:28:32;;;;;;;1.40;0.40;;;5.70;97.80;;;;;;4983180;28;20918;-80
2023/01/15 05:30:58;;;;;;;1.33;0.50;;;5.70;99.90;;;;;;4985128;28;20181;-80
2023/01/15 05:33:23;;;;;;;0.50;0.40;;;5.70;53.70;;;;;;4984399;28;20669;-79
2023/01/15 05:35:49;;;;;;;0.57;0.40;;;5.60;58.00;;;;;;4984354;28;20208;-80
2023/01/15 05:38:14;;;;;;;0.63;0.40;;;5.70;56.10;;;;;;4984939;28;20207;-80
2023/01/15 05:40:40;;;;;;;0.67;0.43;;;5.70;37.20;;;;;;4983080;28;20184;-78
2023/01/15 05:43:05;;;;;;;0.97;0.40;;;5.70;33.70;;;;;;4983080;28;20457;-81
2023/01/15 05:45:34;;;;;;;1.13;0.40;;;5.70;57.40;;;;;;4984503;28;20189;-80
2023/01/15 05:48:00;;;;;;;0.30;0.30;;;5.80;49.40;;;;;;4984477;28;20634;-79
2023/01/15 05:50:26;;;;;;;1.07;0.50;;;5.70;44.50;;;;;;4984741;28;20195;-81
2023/01/15 05:52:51;;;;;;;0.73;0.43;;;5.70;43.30;;;;;;4987747;28;20219;-80
2023/01/15 05:55:17;;;;;;;0.57;0.50;;;5.60;25.80;;;;;;4987211;28;20215;-80
2023/01/15 05:57:42;;;;;;;1.23;0.50;;;5.60;48.90;;;;;;4987545;28;20685;-81
2023/01/15 06:00:08;;;;;;;0.40;0.40;;;5.60;49.90;;;;;;4987530;28;20816;-80
2023/01/15 06:02:34;;;;;;;1.40;0.50;;;5.60;77.50;;;;;;4987201;28;20291;-80
2023/01/15 06:04:59;;;;;;;0.20;0.20;;;5.60;51.90;;;;;;4987406;28;20303;-80
2023/01/15 06:07:25;;;;;;;1.07;0.60;;;5.60;47.30;;;;;;4987314;28;20211;-80
2023/01/15 06:09:50;;;;;;;2.00;0.50;;;5.60;26.00;;;;;;4987996;28;20189;-81
2023/01/15 06:12:16;;;;;;;1.43;0.43;;;5.60;24.30;;;;;;4987615;28;20188;-80
2023/01/15 06:14:41;;;;;;;0.40;0.30;;;5.60;27.80;;;;;;4987737;28;20313;-79
2023/01/15 06:17:07;;;;;;;0.77;0.40;;;5.60;18.80;;;;;;4987449;28;20643;-81
2023/01/15 06:19:32;;;;;;;2.17;0.60;;;5.60;1.00;;;;;;4988157;28;21082;-80
2023/01/15 06:21:58;;;;;;;1.43;0.40;;;5.70;22.50;;;;;;4986586;28;20681;-81
2023/01/15 06:24:23;;;;;;;1.90;0.60;;;5.70;6.60;;;;;;5003461;28;20571;-82
2023/01/15 06:26:49;;;;;;;1.43;0.50;;;5.70;7.50;;;;;;4986934;28;20765;-80
2023/01/15 06:29:19;;;;;;;1.33;0.50;;;5.60;12.00;;;;;;4988059;28;20195;-80
2023/01/15 06:31:45;;;;;;;1.87;0.50;;;5.60;2.60;;;;;;4986776;28;20411;-79
2023/01/15 06:34:10;;;;;;;4.67;0.80;;;5.70;1.00;;;;;;5002973;28;20188;-80
2023/01/15 06:36:36;;;;;;;0.60;0.40;;;5.70;1.90;;;;;;5001900;28;20204;-79
2023/01/15 06:39:02;;;;;;;0.70;0.40;;;5.70;1.00;;;;;;4986438;28;20491;-80
2023/01/15 06:47:20;;;;;;;1.97;0.43;;;5.60;1.00;;;;;;4987315;28;20534;-79
2023/01/15 06:49:47;;;;;;;0.40;0.40;;;5.60;10.80;;;;;;5003226;28;20205;-80
2023/01/15 06:52:12;;;;;;;1.80;0.43;;;5.60;1.00;;;;;;4988040;28;20223;-80
2023/01/15 06:54:38;;;;;;;0.53;0.40;;;5.60;2.10;;;;;;4988413;28;20503;-81
2023/01/15 06:57:03;;;;;;;3.00;0.50;;;5.60;1.50;;;;;;4988486;28;20204;-79
2023/01/15 06:59:30;;;;;;;3.27;0.83;;;5.60;1.00;;;;;;4986592;28;20199;-80
2023/01/15 07:01:56;;;;;;;1.03;0.40;;;5.60;1.00;;;;;;4988370;28;20233;-82
2023/01/15 07:04:21;;;;;;;1.47;0.50;;;5.60;1.00;;;;;;4988608;28;20705;-81
2023/01/15 07:06:47;;;;;;;1.13;0.30;;;5.60;1.00;;;;;;4988173;28;20200;-82
2023/01/15 07:09:13;;;;;;;2.27;0.50;;;5.60;1.00;;;;;;5004147;28;20176;-82
2023/01/15 07:11:50;;;;;;;2.20;0.50;;;5.50;1.00;;;;;;4987614;28;20188;-79
2023/01/15 07:14:22;;;;;;;0.90;0.50;;;5.50;1.00;;;;;;4987220;28;20188;-80
2023/01/15 07:16:48;;;;;;;1.70;0.40;;;5.50;1.00;;;;;;4987080;28;20333;-82
2023/01/15 07:19:14;;;;;;;1.43;0.50;;;5.50;1.00;;;;;;5003812;28;20204;-82
2023/01/15 07:21:40;;;;;;;1.83;0.60;;;5.60;1.00;;;;;;4988794;28;20223;-81
2023/01/15 07:24:06;;;;;;;1.93;0.70;;;5.60;1.00;;;;;;4988240;28;20192;-79
2023/01/15 07:26:32;;;;;;;2.27;0.60;;;5.60;1.00;;;;;;4988942;28;20231;-79
2023/01/15 07:28:57;;;;;;;1.63;0.40;;;5.60;1.00;;;;;;4988398;28;20184;-80
2023/01/15 07:31:23;;;;;;;1.60;0.40;;;5.60;1.00;;;;;;4987574;28;21137;-79
2023/01/15 07:33:49;;;;;;;0.50;0.40;;;5.60;1.00;;;;;;4987784;28;20207;-81
2023/01/15 07:36:14;;;;;;;3.47;0.50;;;5.70;1.00;;;;;;4988355;28;20227;-82
2023/01/15 07:38:40;;;;;;;2.10;0.57;;;5.80;1.00;;;;;;4991270;28;20193;-81
2023/01/15 07:52:02;;;;;;;1.93;0.90;;;5.80;1.00;;;;;;4988154;28;20218;-81
2023/01/15 07:54:28;;;;;;;1.73;0.60;;;5.80;1.00;;;;;;4986185;28;20653;-81
2023/01/15 07:56:55;;;;;;;1.37;1.00;;;5.80;1.00;;;;;;4987154;28;20207;-81
2023/01/15 07:59:21;;;;;;;1.17;0.50;;;5.80;1.00;;;;;;4987869;28;20188;-82
2023/01/15 08:01:47;;;;;;;1.13;0.60;;;5.80;1.00;;;;;;5001757;28;20579;-82
2023/01/15 08:04:12;;;;;;;1.40;0.90;;;5.50;1.00;;;;;;4984723;28;20186;-80
2023/01/15 08:06:38;;;;;;;0.90;0.53;;;5.80;1.00;;;;;;4987927;28;20230;-81
2023/01/15 08:09:04;;;;;;;0.73;0.40;;;5.80;1.00;;;;;;5002683;28;20192;-79
2023/01/15 08:16:58;;;;;;;1.93;0.60;;;5.80;1.00;;;;;;4983876;28;20230;-81
2023/01/15 08:19:24;;;;;;;1.67;0.50;;;5.80;1.00;;;;;;4983556;28;20551;-81
2023/01/15 08:21:50;;;;;;;0.67;0.47;;;5.80;1.00;;;;;;4984433;28;20692;-80
2023/01/15 08:24:16;;;;;;;0.67;0.60;;;5.80;1.00;;;;;;4985491;28;20184;-78
2023/01/15 08:26:42;;;;;;;1.17;0.50;;;5.80;1.00;;;;;;4984590;28;20211;-80
2023/01/15 08:29:08;;;;;;;1.90;0.53;;;5.80;1.00;;;;;;4985072;28;20188;-80
2023/01/15 08:31:34;;;;;;;1.50;0.40;;;5.80;1.00;;;;;;4983563;28;20685;-78
2023/01/15 08:33:59;;;;;;;1.20;0.50;;;5.80;1.00;;;;;;4983578;28;20275;-80
2023/01/15 08:36:25;;;;;;;1.00;0.50;;;5.90;1.00;;;;;;4983424;28;20640;-83
2023/01/15 08:38:51;;;;;;;2.50;0.60;;;5.90;1.00;;;;;;4981334;28;20605;-80
2023/01/15 08:41:16;;;;;;;3.50;1.10;;;5.90;1.00;;;;;;4983001;28;20192;-82
2023/01/15 08:43:44;;;;;;;2.37;0.50;;;5.90;1.00;;;;;;4983091;28;20220;-79
2023/01/15 08:46:10;;;;;;;3.30;0.70;;;5.90;1.00;;;;;;4985503;28;20206;-79
2023/01/15 08:48:36;;;;;;;0.63;0.40;;;5.80;1.00;;;;;;5000611;28;20212;-79
2023/01/15 08:51:06;;;;;;;1.10;0.40;;;5.90;1.00;;;;;;4989494;28;20599;-77
2023/01/15 08:53:32;;;;;;;1.00;0.50;;;5.90;1.00;;;;;;4989280;28;20818;-78
2023/01/15 08:55:58;;;;;;;1.80;0.60;;;5.80;1.00;;;;;;4987809;28;20219;-78
2023/01/15 08:58:25;;;;;;;2.00;0.60;;;5.90;1.00;;;;;;4986404;28;20195;-77
2023/01/15 09:00:51;;;;;;;1.37;0.87;;;5.80;1.00;;;;;;4983579;28;20693;-79
2023/01/15 09:03:17;;;;;;;0.60;0.50;;;5.90;1.00;;;;;;4979763;28;20247;-77
2023/01/15 09:05:42;;;;;;;1.57;0.70;;;5.90;1.00;;;;;;4983462;28;20208;-79
2023/01/15 09:08:08;;;;;;;3.03;0.60;;;5.90;1.00;;;;;;4986045;28;20689;-78
2023/01/15 09:10:34;;;;;;;2.73;0.63;;;5.90;1.00;;;;;;4985156;28;20723;-77
2023/01/15 09:13:01;;;;;;;1.33;0.77;;;6.00;1.00;;;;;;4985099;28;20780;-79
2023/01/15 09:15:30;;;;;;;0.80;0.40;;;6.00;1.00;;;;;;4984566;28;20195;-78
2023/01/15 09:17:56;;;;;;;1.40;0.67;;;6.00;1.00;;;;;;4985616;28;20203;-78
2023/01/15 09:20:21;;;;;;;1.30;0.67;;;6.00;1.00;;;;;;4984215;28;20705;-79
2023/01/15 09:22:47;;;;;;;2.67;1.07;;;5.90;1.00;;;;;;4984125;28;20215;-78
2023/01/15 09:25:15;;;;;;;2.43;0.60;;;6.70;1.00;;;;;;4999672;28;20185;-78
2023/01/15 09:27:41;;;;;;;1.33;0.50;;;5.90;1.00;;;;;;4987526;28;20212;-78
2023/01/15 09:30:09;;;;;;;3.77;0.73;;;5.90;1.00;;;;;;4987476;28;20202;-77
2023/01/15 09:32:35;;;;;;;3.83;0.63;;;6.00;1.00;;;;;;4987499;28;20655;-79
2023/01/15 09:35:01;;;;;;;1.00;0.60;;;6.00;1.00;;;;;;4987026;28;20279;-78
2023/01/15 09:37:27;;;;;;;3.33;0.70;;;6.00;1.00;;;;;;4987261;28;20421;-78
2023/01/15 09:39:52;;;;;;;2.90;0.60;;;6.00;1.00;;;;;;4988247;28;20262;-79
2023/01/15 09:42:44;;;;;;;3.87;1.27;;;6.00;1.00;;;;;;4988093;28;20222;-78
2023/01/15 09:45:24;;;;;;;1.83;0.87;;;6.00;1.00;;;;;;4988745;28;20662;-79
2023/01/15 09:48:22;;;;;;;2.30;0.70;;;6.00;1.00;;;;;;5004494;28;20188;-79
2023/01/15 09:51:14;;;;;;;3.93;0.77;;;6.00;1.00;;;;;;4981777;28;20702;-79
2023/01/15 09:54:04;;;;;;;1.90;0.57;;;6.00;1.00;;;;;;4989266;28;20220;-79
2023/01/15 09:56:32;;;;;;;1.10;0.50;;;6.00;1.00;;;;;;5004010;28;20247;-78
2023/01/15 09:59:00;;;;;;;2.57;0.70;;;6.00;1.00;;;;;;4988708;28;20271;-79
2023/01/15 10:01:31;;;;;;;2.87;0.90;;;6.00;1.00;;;;;;4988405;28;20196;-78
2023/01/15 10:04:17;;;;;;;1.53;0.60;;;6.00;1.00;;;;;;4989319;28;20542;-79
2023/01/15 10:06:54;;;;;;;2.03;0.50;;;6.10;1.00;;;;;;4988710;28;20239;-79
2023/01/15 10:09:26;;;;;;;0.83;0.50;;;6.10;1.00;;;;;;4989994;28;20613;-79
2023/01/15 10:14:53;;;;;;;3.00;0.90;;;6.00;1.00;;;;;;4990412;28;20567;-79
2023/01/15 10:17:26;;;;;;;3.93;0.70;;;6.10;1.00;;;;;;4988343;28;20208;-78
2023/01/15 10:19:52;;;;;;;0.97;0.40;;;6.10;1.00;;;;;;4988549;28;20188;-78
2023/01/15 10:22:30;;;;;;;2.77;0.77;;;6.20;1.00;;;;;;4988242;28;20215;-78
2023/01/15 10:24:57;;;;;;;2.03;0.70;;;6.20;1.00;;;;;;4989035;28;20294;-79
2023/01/15 10:27:27;;;;;;;2.90;0.80;;;6.20;1.00;;;;;;4990054;28;20208;-79
2023/01/15 10:30:05;;;;;;;2.50;0.60;;;6.20;1.00;;;;;;4990044;28;20267;-79
2023/01/15 10:32:52;;;;;;;2.40;0.80;;;6.20;1.00;;;;;;4989822;28;20202;-79
2023/01/15 10:35:47;;;;;;;2.40;0.80;;;6.20;1.00;;;;;;4986574;28;20654;-77
2023/01/15 10:38:18;;;;;;;3.60;0.63;;;6.20;1.00;;;;;;4985907;28;20776;-78
2023/01/15 10:40:50;;;;;;;2.73;0.70;;;6.20;1.00;;;;;;4988570;28;20239;-77
2023/01/15 10:43:38;;;;;;;3.87;1.00;;;6.20;1.00;;;;;;4988894;28;20594;-78
2023/01/15 10:46:26;;;;;;;4.37;0.80;;;6.20;1.00;;;;;;4990634;28;20588;-79
2023/01/15 10:49:14;;;;;;;2.97;0.70;;;6.10;1.00;;;;;;4990761;28;20184;-78
2023/01/15 10:51:56;;;;;;;2.27;0.80;;;6.00;1.00;;;;;;4990771;28;20266;-78
2023/01/15 10:54:27;;;;;;;2.63;0.60;;;5.90;1.00;;;;;;4990637;28;20193;-78
2023/01/15 10:57:20;;;;;;;1.80;0.50;;;5.80;1.00;;;;;;4990337;28;20204;-78
2023/01/15 10:59:57;;;;;;;2.07;0.60;;;5.70;1.00;;;;;;4990517;28;20199;-78
2023/01/15 11:02:31;;;;;;;1.70;0.40;;;5.80;1.00;;;;;;4988485;28;20230;-78
2023/01/15 11:04:57;;;;;;;2.73;0.60;;;5.70;1.00;;;;;;4989398;28;20275;-78
2023/01/15 11:07:40;;;;;;;0.67;0.40;;;5.70;1.00;;;;;;4986815;28;20315;-77
2023/01/15 11:10:16;;;;;;;3.13;0.83;;;5.70;1.00;;;;;;4988326;28;20199;-79
2023/01/15 11:21:30;;;;;;;4.37;0.77;;;5.70;1.00;;;;;;4988565;28;20226;-78
2023/01/15 11:23:58;;;;;;;1.37;0.67;;;5.80;1.00;;;;;;4989027;28;20196;-78
2023/01/15 11:26:31;;;;;;;3.33;0.50;;;5.80;1.00;;;;;;4985592;28;20231;-78
2023/01/15 11:29:00;;;;;;;2.20;0.63;;;5.80;1.00;;;;;;4988150;28;20203;-79
2023/01/15 11:31:39;;;;;;;2.60;0.87;;;5.80;1.00;;;;;;4991010;28;20223;-78
2023/01/15 11:34:17;;;;;;;2.20;0.70;;;5.80;1.00;;;;;;4990763;28;20199;-78
2023/01/15 11:36:42;;;;;;;1.37;0.73;;;5.90;1.00;;;;;;4990202;28;20208;-78
2023/01/15 11:39:26;;;;;;;2.33;0.60;;;5.90;1.00;;;;;;4990577;28;20197;-77
2023/01/15 11:51:07;;;;;;;2.80;0.70;;;6.10;1.00;;;;;;4990555;28;20215;-79
2023/01/15 11:53:40;;;;;;;5.07;0.70;;;6.10;1.00;;;;;;4991446;28;20568;-78
2023/01/15 11:56:16;;;;;;;1.70;0.57;;;6.10;1.00;;;;;;4989678;28;20318;-78
2023/01/15 11:58:48;;;;;;;1.70;0.63;;;6.20;1.00;;;;;;4990296;28;20206;-78
2023/01/15 12:01:32;;;;;;;1.30;0.63;;;6.10;1.00;;;;;;4989620;28;20571;-78
2023/01/15 12:03:59;;;;;;;1.93;0.47;;;6.20;1.00;;;;;;4990610;28;20180;-77
2023/01/15 12:06:25;;;;;;;1.83;0.80;;;6.30;1.00;;;;;;4985092;28;20245;-79
2023/01/15 12:09:04;;;;;;;3.70;0.83;;;6.40;1.00;;;;;;4985738;28;20189;-78
2023/01/15 12:12:01;;;;;;;3.90;0.90;;;6.30;1.00;;;;;;4985970;28;20188;-78
2023/01/15 12:14:48;;;;;;;3.33;1.00;;;6.40;1.00;;;;;;4985552;28;20196;-78
2023/01/15 12:17:23;;;;;;;2.77;0.60;;;6.60;1.00;;;;;;4986592;28;20239;-78
2023/01/15 12:19:58;;;;;;;2.40;0.60;;;6.40;1.00;;;;;;4987036;28;20208;-78
2023/01/15 12:22:52;;;;;;;2.07;0.50;;;6.40;1.00;;;;;;4987159;28;20222;-79
2023/01/15 12:25:36;;;;;;;2.27;0.60;;;6.40;1.00;;;;;;4985286;28;20204;-78
2023/01/15 12:28:13;;;;;;;3.60;0.67;;;6.40;1.00;;;;;;4987400;28;20188;-78
2023/01/15 12:30:59;;;;;;;1.80;0.73;;;6.40;1.00;;;;;;4987778;28;20179;-79
2023/01/15 12:33:49;;;;;;;3.87;0.70;;;6.40;1.00;;;;;;4987323;28;20600;-78
2023/01/15 12:36:25;;;;;;;1.83;0.70;;;6.10;1.00;;;;;;4987761;28;20299;-79
2023/01/15 12:38:57;;;;;;;1.80;0.70;;;6.50;1.00;;;;;;4987494;28;20226;-78
2023/01/15 12:44:58;;;;;;;3.03;0.70;;;6.50;1.00;;;;;;4986295;28;20191;-79
2023/01/15 12:47:03;;;;;;;3.30;0.70;;;6.40;1.00;;;;;;4985313;28;20287;-79
2023/01/15 12:50:01;;;;;;;1.00;0.40;;;6.50;1.00;;;;;;4987005;28;20184;-77
2023/01/15 12:52:35;;;;;;;2.13;0.80;;;6.50;1.00;;;;;;4985252;28;20388;-77
2023/01/15 12:55:13;;;;;;;2.37;0.70;;;6.50;1.00;;;;;;4984415;28;20274;-77
2023/01/15 12:57:43;;;;;;;2.13;0.60;;;6.50;1.00;;;;;;4982788;28;20199;-79
2023/01/15 13:00:08;;;;;;;4.63;1.00;;;6.60;1.00;;;;;;4984125;28;20188;-78
2023/01/15 13:02:37;;;;;;;1.13;0.50;;;6.60;1.00;;;;;;4983714;28;21292;-78
2023/01/15 13:05:16;;;;;;;2.40;0.63;;;6.70;1.00;;;;;;4986957;28;20725;-79
2023/01/15 13:07:52;;;;;;;2.03;0.40;;;6.70;1.00;;;;;;4988892;28;20214;-78
2023/01/15 13:10:25;;;;;;;2.00;0.70;;;6.70;1.00;;;;;;4989645;28;20184;-78
2023/01/15 13:13:00;;;;;;;2.27;0.70;;;6.70;1.00;;;;;;4984410;28;20184;-78
2023/01/15 13:15:34;;;;;;;2.50;0.60;;;6.80;1.00;;;;;;4983954;28;20583;-79
2023/01/15 13:18:13;;;;;;;1.90;0.80;;;6.80;1.00;;;;;;4981421;28;20188;-77
2023/01/15 13:20:49;;;;;;;3.97;0.70;;;6.90;1.00;;;;;;4981901;28;20224;-79
2023/01/15 13:23:33;;;;;;;2.43;0.57;;;6.90;1.00;;;;;;4986119;28;20370;-79
2023/01/15 13:26:22;;;;;;;1.77;0.57;;;6.80;1.00;;;;;;4985044;28;20576;-78
2023/01/15 13:29:08;;;;;;;2.87;0.80;;;6.80;1.00;;;;;;4988311;28;20234;-79
2023/01/15 13:31:49;;;;;;;0.93;0.60;;;6.70;1.00;;;;;;4987907;28;20230;-79
2023/01/15 13:34:26;;;;;;;2.60;0.77;;;6.80;1.00;;;;;;5002702;28;20187;-79
2023/01/15 13:36:53;;;;;;;2.27;0.63;;;6.80;1.00;;;;;;4986460;28;20200;-79
2023/01/15 13:39:23;;;;;;;1.60;0.50;;;6.90;1.00;;;;;;5001559;28;20188;-79
2023/01/15 13:44:43;;;;;;;2.17;1.00;;;6.90;1.00;;;;;;4987487;28;20760;-79
2023/01/15 13:47:12;;;;;;;1.50;0.60;;;6.70;1.00;;;;;;4986052;28;20521;-79
2023/01/15 13:49:45;;;;;;;2.63;0.60;;;6.70;1.00;;;;;;5002038;28;20238;-78
2023/01/15 13:52:25;;;;;;;2.30;0.73;;;6.80;1.00;;;;;;5000546;28;20541;-80
2023/01/15 13:54:52;;;;;;;2.07;0.70;;;6.90;1.00;;;;;;4986394;28;20211;-78
2023/01/15 13:57:22;;;;;;;2.67;0.70;;;6.90;1.00;;;;;;4986922;28;20254;-77
2023/01/15 13:59:49;;;;;;;1.67;0.60;;;6.90;1.00;;;;;;4986548;28;20188;-77
2023/01/15 14:02:37;;;;;;;3.20;1.00;;;6.90;1.00;;;;;;4987808;28;20215;-79
2023/01/15 14:05:30;;;;;;;1.27;0.70;;;6.90;1.00;;;;;;4988839;28;20195;-77
2023/01/15 14:07:56;;;;;;;2.60;0.77;;;6.80;1.00;;;;;;4984907;28;20625;-78
2023/01/15 14:10:35;;;;;;;1.47;0.73;;;6.80;1.00;;;;;;5004713;28;20958;-77
2023/01/15 14:13:15;;;;;;;1.27;0.50;;;6.80;1.00;;;;;;4997869;28;20192;-77
2023/01/15 14:16:26;;;;;;;1.53;0.50;;;6.70;1.00;;;;;;4986095;28;20200;-80
2023/01/15 14:19:07;;;;;;;1.60;0.67;;;6.70;1.00;;;;;;4985776;28;20200;-76
2023/01/15 14:21:50;;;;;;;3.23;0.87;;;6.70;1.00;;;;;;4994478;28;20283;-78
2023/01/15 14:24:25;;;;;;;2.70;0.87;;;6.70;1.00;;;;;;4993704;28;20223;-77
2023/01/15 14:27:16;;;;;;;2.47;0.70;;;6.70;1.00;;;;;;4991494;28;21003;-79
2023/01/15 14:30:11;;;;;;;2.37;0.70;;;6.70;1.00;;;;;;4970349;28;20200;-76
2023/01/15 14:32:55;;;;;;;4.17;0.90;;;6.70;1.00;;;;;;4991167;28;20211;-78
2023/01/15 14:35:23;;;;;;;2.03;0.60;;;6.70;1.00;;;;;;4990493;28;20188;-79
2023/01/15 14:37:56;;;;;;;3.53;0.87;;;6.70;1.00;;;;;;4990371;28;20208;-78